sensor_id;sensor_type;location;lat;lon;timestamp;temperature;humidity
20891;DHT22;10605;52.968;8.844;2022-10-12T00:01:03;5.50;99.90
20891;DHT22;10605;52.968;8.844;2022-10-12T00:03:30;5.50;99.90
20891;DHT22;10605;52.968;8.844;2022-10-12T00:06:17;5.40;99.90
20891;DHT22;10605;52.968;8.844;2022-10-12T00:08:43;5.40;99.90
20891;DHT22;10605;52.968;8.844;2022-10-12T00:11:21;5.40;99.90
20891;DHT22;10605;52.968;8.844;2022-10-12T00:13:47;5.40;99.90
20891;DHT22;10605;52.968;8.844;2022-10-12T00:16:15;5.40;99.90
20891;DHT22;10605;52.968;8.844;2022-10-12T00:18:40;5.40;99.90
20891;DHT22;10605;52.968;8.844;2022-10-12T00:21:16;5.40;99.90
20891;DHT22;10605;52.968;8.844;2022-10-12T00:23:43;5.30;99.90
20891;DHT22;10605;52.968;8.844;2022-10-12T00:26:15;5.20;99.90
20891;DHT22;10605;52.968;8.844;2022-10-12T00:28:41;5.20;99.90
20891;DHT22;10605;52.968;8.844;2022-10-12T00:31:09;5.20;99.90
20891;DHT22;10605;52.968;8.844;2022-10-12T00:33:35;5.20;99.90
20891;DHT22;10605;52.968;8.844;2022-10-12T00:36:23;5.20;99.90
20891;DHT22;10605;52.968;8.844;2022-10-12T00:38:51;5.10;99.90
20891;DHT22;10605;52.968;8.844;2022-10-12T00:41:20;5.10;99.90
20891;DHT22;10605;52.968;8.844;2022-10-12T00:43:47;5.00;99.90
20891;DHT22;10605;52.968;8.844;2022-10-12T00:46:29;5.00;99.90
20891;DHT22;10605;52.968;8.844;2022-10-12T00:51:27;5.00;99.90
20891;DHT22;10605;52.968;8.844;2022-10-12T00:53:57;5.00;99.90
20891;DHT22;10605;52.968;8.844;2022-10-12T00:56:26;5.00;99.90
20891;DHT22;10605;52.968;8.844;2022-10-12T00:58:54;5.00;99.90
20891;DHT22;10605;52.968;8.844;2022-10-12T01:01:20;5.00;99.90
20891;DHT22;10605;52.968;8.844;2022-10-12T01:03:47;5.00;99.90
20891;DHT22;10605;52.968;8.844;2022-10-12T01:06:14;5.00;99.90
20891;DHT22;10605;52.968;8.844;2022-10-12T01:08:40;4.90;99.90
20891;DHT22;10605;52.968;8.844;2022-10-12T01:11:06;5.00;99.90
20891;DHT22;10605;52.968;8.844;2022-10-12T01:13:32;5.00;99.90
20891;DHT22;10605;52.968;8.844;2022-10-12T01:18:47;4.90;99.90
20891;DHT22;10605;52.968;8.844;2022-10-12T01:21:20;4.80;99.90
20891;DHT22;10605;52.968;8.844;2022-10-12T01:24:06;4.80;99.90
20891;DHT22;10605;52.968;8.844;2022-10-12T01:26:46;4.80;99.90
20891;DHT22;10605;52.968;8.844;2022-10-12T01:40:28;4.50;99.90
20891;DHT22;10605;52.968;8.844;2022-10-12T01:42:56;4.50;99.90
20891;DHT22;10605;52.968;8.844;2022-10-12T01:45:23;4.50;99.90
20891;DHT22;10605;52.968;8.844;2022-10-12T01:47:50;4.50;99.90
20891;DHT22;10605;52.968;8.844;2022-10-12T01:50:17;4.50;99.90
20891;DHT22;10605;52.968;8.844;2022-10-12T01:53:00;4.50;99.90
20891;DHT22;10605;52.968;8.844;2022-10-12T02:07:09;4.30;99.90
20891;DHT22;10605;52.968;8.844;2022-10-12T02:09:36;4.30;99.90
20891;DHT22;10605;52.968;8.844;2022-10-12T02:12:11;4.30;99.90
20891;DHT22;10605;52.968;8.844;2022-10-12T02:14:42;4.30;99.90
20891;DHT22;10605;52.968;8.844;2022-10-12T02:17:11;4.30;99.90
20891;DHT22;10605;52.968;8.844;2022-10-12T02:19:44;4.30;99.90
20891;DHT22;10605;52.968;8.844;2022-10-12T02:22:12;4.30;99.90
20891;DHT22;10605;52.968;8.844;2022-10-12T02:24:41;4.30;99.90
20891;DHT22;10605;52.968;8.844;2022-10-12T02:27:09;4.20;99.90
20891;DHT22;10605;52.968;8.844;2022-10-12T02:29:39;4.20;99.90
20891;DHT22;10605;52.968;8.844;2022-10-12T02:35:12;4.10;99.90
20891;DHT22;10605;52.968;8.844;2022-10-12T02:38:08;4.00;99.90
20891;DHT22;10605;52.968;8.844;2022-10-12T02:43:52;4.00;99.90
20891;DHT22;10605;52.968;8.844;2022-10-12T02:46:21;3.90;99.90
20891;DHT22;10605;52.968;8.844;2022-10-12T02:48:49;3.80;99.90
20891;DHT22;10605;52.968;8.844;2022-10-12T02:51:16;3.90;99.90
20891;DHT22;10605;52.968;8.844;2022-10-12T02:53:43;3.90;99.90
20891;DHT22;10605;52.968;8.844;2022-10-12T02:56:11;3.90;99.90
20891;DHT22;10605;52.968;8.844;2022-10-12T02:58:37;3.90;99.90
20891;DHT22;10605;52.968;8.844;2022-10-12T03:01:04;3.90;99.90
20891;DHT22;10605;52.968;8.844;2022-10-12T03:03:29;3.90;99.90
20891;DHT22;10605;52.968;8.844;2022-10-12T03:05:55;3.90;99.90
20891;DHT22;10605;52.968;8.844;2022-10-12T03:08:21;3.90;99.90
20891;DHT22;10605;52.968;8.844;2022-10-12T03:10:47;3.90;99.90
20891;DHT22;10605;52.968;8.844;2022-10-12T03:13:12;3.90;99.90
20891;DHT22;10605;52.968;8.844;2022-10-12T03:15:38;3.90;99.90
20891;DHT22;10605;52.968;8.844;2022-10-12T03:18:04;3.80;99.90
20891;DHT22;10605;52.968;8.844;2022-10-12T03:20:29;3.80;99.90
20891;DHT22;10605;52.968;8.844;2022-10-12T03:22:55;3.70;99.90
20891;DHT22;10605;52.968;8.844;2022-10-12T03:25:21;3.80;99.90
20891;DHT22;10605;52.968;8.844;2022-10-12T03:27:47;3.80;99.90
20891;DHT22;10605;52.968;8.844;2022-10-12T03:30:13;3.70;99.90
20891;DHT22;10605;52.968;8.844;2022-10-12T03:32:39;3.70;99.90
20891;DHT22;10605;52.968;8.844;2022-10-12T03:35:05;3.60;99.90
20891;DHT22;10605;52.968;8.844;2022-10-12T03:37:31;3.70;99.90
20891;DHT22;10605;52.968;8.844;2022-10-12T03:39:57;3.60;99.90
20891;DHT22;10605;52.968;8.844;2022-10-12T03:42:23;3.60;99.90
20891;DHT22;10605;52.968;8.844;2022-10-12T03:44:48;3.50;99.90
20891;DHT22;10605;52.968;8.844;2022-10-12T03:47:16;3.60;99.90
20891;DHT22;10605;52.968;8.844;2022-10-12T03:49:42;3.50;99.90
20891;DHT22;10605;52.968;8.844;2022-10-12T03:52:08;3.60;99.90
20891;DHT22;10605;52.968;8.844;2022-10-12T03:54:34;3.60;99.90
20891;DHT22;10605;52.968;8.844;2022-10-12T03:56:59;3.60;99.90
20891;DHT22;10605;52.968;8.844;2022-10-12T03:59:25;3.60;99.90
20891;DHT22;10605;52.968;8.844;2022-10-12T04:01:51;3.70;99.90
20891;DHT22;10605;52.968;8.844;2022-10-12T04:04:16;3.70;99.90
20891;DHT22;10605;52.968;8.844;2022-10-12T04:06:42;3.70;99.90
20891;DHT22;10605;52.968;8.844;2022-10-12T04:09:08;3.70;99.90
20891;DHT22;10605;52.968;8.844;2022-10-12T04:11:34;3.60;99.90
20891;DHT22;10605;52.968;8.844;2022-10-12T04:13:59;3.70;99.90
20891;DHT22;10605;52.968;8.844;2022-10-12T04:16:25;3.70;99.90
20891;DHT22;10605;52.968;8.844;2022-10-12T04:18:51;3.70;99.90
20891;DHT22;10605;52.968;8.844;2022-10-12T04:21:17;3.60;99.90
20891;DHT22;10605;52.968;8.844;2022-10-12T04:23:45;3.60;99.90
20891;DHT22;10605;52.968;8.844;2022-10-12T04:26:10;3.60;99.90
20891;DHT22;10605;52.968;8.844;2022-10-12T04:28:36;3.60;99.90
20891;DHT22;10605;52.968;8.844;2022-10-12T04:31:01;3.60;99.90
20891;DHT22;10605;52.968;8.844;2022-10-12T04:33:27;3.60;99.90
20891;DHT22;10605;52.968;8.844;2022-10-12T04:35:53;3.50;99.90
20891;DHT22;10605;52.968;8.844;2022-10-12T04:38:18;3.50;99.90
20891;DHT22;10605;52.968;8.844;2022-10-12T04:40:47;3.40;99.90
20891;DHT22;10605;52.968;8.844;2022-10-12T04:43:13;3.40;99.90
20891;DHT22;10605;52.968;8.844;2022-10-12T04:45:39;3.40;99.90
20891;DHT22;10605;52.968;8.844;2022-10-12T04:48:05;3.40;99.90
20891;DHT22;10605;52.968;8.844;2022-10-12T04:50:30;3.40;99.90
20891;DHT22;10605;52.968;8.844;2022-10-12T04:52:56;3.40;99.90
20891;DHT22;10605;52.968;8.844;2022-10-12T04:55:22;3.40;99.90
20891;DHT22;10605;52.968;8.844;2022-10-12T04:57:47;3.40;99.90
20891;DHT22;10605;52.968;8.844;2022-10-12T05:00:14;3.50;99.90
20891;DHT22;10605;52.968;8.844;2022-10-12T05:02:40;3.50;99.90
20891;DHT22;10605;52.968;8.844;2022-10-12T05:05:06;3.60;99.90
20891;DHT22;10605;52.968;8.844;2022-10-12T05:07:32;3.60;99.90
20891;DHT22;10605;52.968;8.844;2022-10-12T05:09:58;3.70;99.90
20891;DHT22;10605;52.968;8.844;2022-10-12T05:12:23;3.60;99.90
20891;DHT22;10605;52.968;8.844;2022-10-12T05:14:49;3.60;99.90
20891;DHT22;10605;52.968;8.844;2022-10-12T05:17:17;3.50;99.90
20891;DHT22;10605;52.968;8.844;2022-10-12T05:19:43;3.50;99.90
20891;DHT22;10605;52.968;8.844;2022-10-12T05:22:08;3.50;99.90
20891;DHT22;10605;52.968;8.844;2022-10-12T05:24:34;3.40;99.90
20891;DHT22;10605;52.968;8.844;2022-10-12T05:27:00;3.40;99.90
20891;DHT22;10605;52.968;8.844;2022-10-12T05:29:27;3.30;99.90
20891;DHT22;10605;52.968;8.844;2022-10-12T05:31:52;3.40;99.90
20891;DHT22;10605;52.968;8.844;2022-10-12T05:34:18;3.30;99.90
20891;DHT22;10605;52.968;8.844;2022-10-12T05:36:43;3.30;99.90
20891;DHT22;10605;52.968;8.844;2022-10-12T05:39:09;3.30;99.90
20891;DHT22;10605;52.968;8.844;2022-10-12T05:41:35;3.30;99.90
20891;DHT22;10605;52.968;8.844;2022-10-12T05:44:01;3.30;99.90
20891;DHT22;10605;52.968;8.844;2022-10-12T05:46:26;3.40;99.90
20891;DHT22;10605;52.968;8.844;2022-10-12T05:48:52;3.40;99.90
20891;DHT22;10605;52.968;8.844;2022-10-12T05:51:18;3.40;99.90
20891;DHT22;10605;52.968;8.844;2022-10-12T05:53:43;3.40;99.90
20891;DHT22;10605;52.968;8.844;2022-10-12T05:56:09;3.40;99.90
20891;DHT22;10605;52.968;8.844;2022-10-12T05:58:35;3.50;99.90
20891;DHT22;10605;52.968;8.844;2022-10-12T06:01:08;3.50;99.90
20891;DHT22;10605;52.968;8.844;2022-10-12T06:03:34;3.50;99.90
20891;DHT22;10605;52.968;8.844;2022-10-12T06:06:01;3.50;99.90
20891;DHT22;10605;52.968;8.844;2022-10-12T06:08:28;3.60;99.90
20891;DHT22;10605;52.968;8.844;2022-10-12T06:10:54;3.70;99.90
20891;DHT22;10605;52.968;8.844;2022-10-12T06:13:20;3.80;99.90
20891;DHT22;10605;52.968;8.844;2022-10-12T06:15:46;3.90;99.90
20891;DHT22;10605;52.968;8.844;2022-10-12T06:18:12;4.10;99.90
20891;DHT22;10605;52.968;8.844;2022-10-12T06:20:38;4.20;99.90
20891;DHT22;10605;52.968;8.844;2022-10-12T06:23:04;4.30;99.90
20891;DHT22;10605;52.968;8.844;2022-10-12T06:25:29;4.40;99.90
20891;DHT22;10605;52.968;8.844;2022-10-12T06:27:55;4.50;99.90
20891;DHT22;10605;52.968;8.844;2022-10-12T06:30:21;4.50;99.90
20891;DHT22;10605;52.968;8.844;2022-10-12T06:32:46;4.80;99.90
20891;DHT22;10605;52.968;8.844;2022-10-12T06:35:12;4.90;99.90
20891;DHT22;10605;52.968;8.844;2022-10-12T06:37:38;5.10;99.90
20891;DHT22;10605;52.968;8.844;2022-10-12T06:40:04;5.30;99.90
20891;DHT22;10605;52.968;8.844;2022-10-12T06:42:30;5.50;99.90
20891;DHT22;10605;52.968;8.844;2022-10-12T06:44:56;5.60;99.90
20891;DHT22;10605;52.968;8.844;2022-10-12T06:47:22;5.80;99.90
20891;DHT22;10605;52.968;8.844;2022-10-12T06:49:47;6.10;99.90
20891;DHT22;10605;52.968;8.844;2022-10-12T06:52:13;6.70;99.90
20891;DHT22;10605;52.968;8.844;2022-10-12T06:54:38;7.10;99.90
20891;DHT22;10605;52.968;8.844;2022-10-12T06:57:05;7.50;99.90
20891;DHT22;10605;52.968;8.844;2022-10-12T06:59:31;7.90;99.90
20891;DHT22;10605;52.968;8.844;2022-10-12T07:01:56;8.10;99.90
20891;DHT22;10605;52.968;8.844;2022-10-12T07:04:22;8.40;99.90
20891;DHT22;10605;52.968;8.844;2022-10-12T07:06:48;8.80;99.90
20891;DHT22;10605;52.968;8.844;2022-10-12T07:09:15;9.10;99.90
20891;DHT22;10605;52.968;8.844;2022-10-12T07:11:40;9.50;99.90
20891;DHT22;10605;52.968;8.844;2022-10-12T07:14:06;9.80;99.90
20891;DHT22;10605;52.968;8.844;2022-10-12T07:16:32;10.00;99.90
20891;DHT22;10605;52.968;8.844;2022-10-12T07:18:58;10.30;99.90
20891;DHT22;10605;52.968;8.844;2022-10-12T07:21:23;10.60;99.90
20891;DHT22;10605;52.968;8.844;2022-10-12T07:23:49;10.70;99.90
20891;DHT22;10605;52.968;8.844;2022-10-12T07:26:14;11.10;99.90
20891;DHT22;10605;52.968;8.844;2022-10-12T07:28:40;11.30;99.90
20891;DHT22;10605;52.968;8.844;2022-10-12T07:31:07;11.40;99.90
20891;DHT22;10605;52.968;8.844;2022-10-12T07:33:35;11.70;99.90
20891;DHT22;10605;52.968;8.844;2022-10-12T07:36:01;12.00;99.90
20891;DHT22;10605;52.968;8.844;2022-10-12T07:38:27;12.30;99.90
20891;DHT22;10605;52.968;8.844;2022-10-12T07:40:53;12.60;99.90
20891;DHT22;10605;52.968;8.844;2022-10-12T07:43:19;12.80;99.90
20891;DHT22;10605;52.968;8.844;2022-10-12T07:45:45;13.30;99.90
20891;DHT22;10605;52.968;8.844;2022-10-12T07:48:10;13.40;99.90
20891;DHT22;10605;52.968;8.844;2022-10-12T07:50:36;13.40;99.90
20891;DHT22;10605;52.968;8.844;2022-10-12T07:53:02;13.80;99.90
20891;DHT22;10605;52.968;8.844;2022-10-12T07:55:29;14.00;99.90
20891;DHT22;10605;52.968;8.844;2022-10-12T07:57:57;14.30;99.90
20891;DHT22;10605;52.968;8.844;2022-10-12T08:00:23;14.40;99.90
20891;DHT22;10605;52.968;8.844;2022-10-12T08:02:49;14.20;99.90
20891;DHT22;10605;52.968;8.844;2022-10-12T08:05:14;14.70;99.90
20891;DHT22;10605;52.968;8.844;2022-10-12T08:07:40;14.90;99.90
20891;DHT22;10605;52.968;8.844;2022-10-12T08:10:06;15.10;99.90
20891;DHT22;10605;52.968;8.844;2022-10-12T08:12:35;15.70;99.90
20891;DHT22;10605;52.968;8.844;2022-10-12T08:15:00;15.70;99.90
20891;DHT22;10605;52.968;8.844;2022-10-12T08:17:26;16.00;99.90
20891;DHT22;10605;52.968;8.844;2022-10-12T08:19:55;15.80;99.90
20891;DHT22;10605;52.968;8.844;2022-10-12T08:22:21;16.00;99.90
20891;DHT22;10605;52.968;8.844;2022-10-12T08:24:46;16.30;99.90
20891;DHT22;10605;52.968;8.844;2022-10-12T08:27:12;16.30;99.90
20891;DHT22;10605;52.968;8.844;2022-10-12T08:29:38;16.20;99.90
20891;DHT22;10605;52.968;8.844;2022-10-12T08:32:04;15.80;99.90
20891;DHT22;10605;52.968;8.844;2022-10-12T08:34:30;16.20;99.90
20891;DHT22;10605;52.968;8.844;2022-10-12T08:36:57;16.50;99.90
20891;DHT22;10605;52.968;8.844;2022-10-12T08:39:24;16.90;99.90
20891;DHT22;10605;52.968;8.844;2022-10-12T08:47:03;17.70;99.90
20891;DHT22;10605;52.968;8.844;2022-10-12T08:49:30;18.50;99.90
20891;DHT22;10605;52.968;8.844;2022-10-12T08:52:00;18.40;99.90
20891;DHT22;10605;52.968;8.844;2022-10-12T08:54:33;18.90;99.90
20891;DHT22;10605;52.968;8.844;2022-10-12T08:56:59;19.00;99.90
20891;DHT22;10605;52.968;8.844;2022-10-12T08:59:26;18.70;99.90
20891;DHT22;10605;52.968;8.844;2022-10-12T09:07:39;18.70;99.90
20891;DHT22;10605;52.968;8.844;2022-10-12T09:13:20;18.20;99.90
20891;DHT22;10605;52.968;8.844;2022-10-12T09:18:39;19.40;99.90
20891;DHT22;10605;52.968;8.844;2022-10-12T09:21:09;19.60;99.90
20891;DHT22;10605;52.968;8.844;2022-10-12T09:23:39;19.30;99.90
20891;DHT22;10605;52.968;8.844;2022-10-12T09:28:56;19.50;99.90
20891;DHT22;10605;52.968;8.844;2022-10-12T09:34:05;19.70;99.90
20891;DHT22;10605;52.968;8.844;2022-10-12T09:36:35;20.00;99.90
20891;DHT22;10605;52.968;8.844;2022-10-12T09:39:21;20.30;99.90
20891;DHT22;10605;52.968;8.844;2022-10-12T09:41:48;20.60;99.90
20891;DHT22;10605;52.968;8.844;2022-10-12T09:44:35;20.90;99.90
20891;DHT22;10605;52.968;8.844;2022-10-12T09:47:21;20.80;99.90
20891;DHT22;10605;52.968;8.844;2022-10-12T09:49:55;20.30;99.90
20891;DHT22;10605;52.968;8.844;2022-10-12T09:55:33;21.60;99.90
20891;DHT22;10605;52.968;8.844;2022-10-12T09:57:57;21.30;99.90
20891;DHT22;10605;52.968;8.844;2022-10-12T10:02:54;22.00;99.40
20891;DHT22;10605;52.968;8.844;2022-10-12T10:07:49;21.50;99.90
20891;DHT22;10605;52.968;8.844;2022-10-12T10:10:21;21.80;99.60
20891;DHT22;10605;52.968;8.844;2022-10-12T10:12:53;21.80;99.50
20891;DHT22;10605;52.968;8.844;2022-10-12T10:15:32;21.90;97.10
20891;DHT22;10605;52.968;8.844;2022-10-12T10:18:01;22.00;95.70
20891;DHT22;10605;52.968;8.844;2022-10-12T10:20:43;22.70;97.60
20891;DHT22;10605;52.968;8.844;2022-10-12T10:23:30;22.60;94.40
20891;DHT22;10605;52.968;8.844;2022-10-12T10:26:02;22.90;93.40
20891;DHT22;10605;52.968;8.844;2022-10-12T10:28:32;23.10;93.10
20891;DHT22;10605;52.968;8.844;2022-10-12T10:31:19;23.10;92.70
20891;DHT22;10605;52.968;8.844;2022-10-12T10:36:54;23.00;91.40
20891;DHT22;10605;52.968;8.844;2022-10-12T10:43:29;23.90;88.40
20891;DHT22;10605;52.968;8.844;2022-10-12T10:46:39;23.50;88.40
20891;DHT22;10605;52.968;8.844;2022-10-12T10:50:00;24.10;84.90
20891;DHT22;10605;52.968;8.844;2022-10-12T10:52:37;23.10;83.80
20891;DHT22;10605;52.968;8.844;2022-10-12T10:55:21;23.20;84.40
20891;DHT22;10605;52.968;8.844;2022-10-12T11:00:29;22.10;89.20
20891;DHT22;10605;52.968;8.844;2022-10-12T11:02:58;23.00;87.50
20891;DHT22;10605;52.968;8.844;2022-10-12T11:05:35;22.30;86.80
20891;DHT22;10605;52.968;8.844;2022-10-12T11:08:19;21.60;89.10
20891;DHT22;10605;52.968;8.844;2022-10-12T11:10:53;22.10;86.10
20891;DHT22;10605;52.968;8.844;2022-10-12T11:13:42;23.40;83.30
20891;DHT22;10605;52.968;8.844;2022-10-12T11:16:26;24.10;86.90
20891;DHT22;10605;52.968;8.844;2022-10-12T11:18:56;24.60;82.70
20891;DHT22;10605;52.968;8.844;2022-10-12T11:21:30;25.30;76.60
20891;DHT22;10605;52.968;8.844;2022-10-12T11:24:10;24.40;78.40
20891;DHT22;10605;52.968;8.844;2022-10-12T11:27:02;24.50;78.50
20891;DHT22;10605;52.968;8.844;2022-10-12T11:29:30;24.80;79.30
20891;DHT22;10605;52.968;8.844;2022-10-12T11:32:26;25.60;74.70
20891;DHT22;10605;52.968;8.844;2022-10-12T11:35:00;25.20;73.30
20891;DHT22;10605;52.968;8.844;2022-10-12T11:37:46;24.70;75.70
20891;DHT22;10605;52.968;8.844;2022-10-12T11:40:24;24.30;72.90
20891;DHT22;10605;52.968;8.844;2022-10-12T11:42:54;24.70;76.50
20891;DHT22;10605;52.968;8.844;2022-10-12T11:45:33;24.70;74.40
20891;DHT22;10605;52.968;8.844;2022-10-12T11:48:06;24.10;71.30
20891;DHT22;10605;52.968;8.844;2022-10-12T11:50:48;23.50;71.20
20891;DHT22;10605;52.968;8.844;2022-10-12T11:53:22;22.70;73.40
20891;DHT22;10605;52.968;8.844;2022-10-12T11:56:03;23.00;75.00
20891;DHT22;10605;52.968;8.844;2022-10-12T11:58:36;23.50;75.50
20891;DHT22;10605;52.968;8.844;2022-10-12T12:01:42;23.70;74.70
20891;DHT22;10605;52.968;8.844;2022-10-12T12:09:42;22.90;76.30
20891;DHT22;10605;52.968;8.844;2022-10-12T12:12:25;22.30;76.50
20891;DHT22;10605;52.968;8.844;2022-10-12T12:19:49;23.30;75.90
20891;DHT22;10605;52.968;8.844;2022-10-12T12:25:02;23.90;74.50
20891;DHT22;10605;52.968;8.844;2022-10-12T12:27:42;23.10;74.00
20891;DHT22;10605;52.968;8.844;2022-10-12T12:32:57;22.40;78.00
20891;DHT22;10605;52.968;8.844;2022-10-12T12:38:19;19.00;86.00
20891;DHT22;10605;52.968;8.844;2022-10-12T12:41:05;18.20;91.50
20891;DHT22;10605;52.968;8.844;2022-10-12T12:45:58;17.40;97.00
20891;DHT22;10605;52.968;8.844;2022-10-12T13:02:27;16.70;99.90
20891;DHT22;10605;52.968;8.844;2022-10-12T13:16:27;16.30;99.90
20891;DHT22;10605;52.968;8.844;2022-10-12T13:19:03;16.40;99.90
20891;DHT22;10605;52.968;8.844;2022-10-12T13:21:45;16.40;99.90
20891;DHT22;10605;52.968;8.844;2022-10-12T13:24:19;16.40;99.90
20891;DHT22;10605;52.968;8.844;2022-10-12T13:26:56;16.40;99.90
20891;DHT22;10605;52.968;8.844;2022-10-12T13:29:45;16.30;99.90
20891;DHT22;10605;52.968;8.844;2022-10-12T13:35:05;16.20;99.90
20891;DHT22;10605;52.968;8.844;2022-10-12T13:37:34;16.10;99.90
20891;DHT22;10605;52.968;8.844;2022-10-12T13:40:00;16.10;99.90
20891;DHT22;10605;52.968;8.844;2022-10-12T13:42:30;16.10;99.90
20891;DHT22;10605;52.968;8.844;2022-10-12T13:45:07;16.00;99.90
20891;DHT22;10605;52.968;8.844;2022-10-12T13:47:33;16.00;99.90
20891;DHT22;10605;52.968;8.844;2022-10-12T13:50:18;16.10;99.90
20891;DHT22;10605;52.968;8.844;2022-10-12T13:52:52;16.00;99.90
20891;DHT22;10605;52.968;8.844;2022-10-12T13:55:24;16.00;99.90
20891;DHT22;10605;52.968;8.844;2022-10-12T13:57:51;16.10;99.90
20891;DHT22;10605;52.968;8.844;2022-10-12T14:00:23;16.00;99.90
20891;DHT22;10605;52.968;8.844;2022-10-12T14:02:58;15.90;99.90
20891;DHT22;10605;52.968;8.844;2022-10-12T14:05:26;15.90;99.90
20891;DHT22;10605;52.968;8.844;2022-10-12T14:08:06;16.00;99.90
20891;DHT22;10605;52.968;8.844;2022-10-12T14:10:36;16.00;99.90
20891;DHT22;10605;52.968;8.844;2022-10-12T14:13:02;16.00;99.90
20891;DHT22;10605;52.968;8.844;2022-10-12T14:15:34;15.90;99.90
20891;DHT22;10605;52.968;8.844;2022-10-12T14:18:01;16.00;99.90
20891;DHT22;10605;52.968;8.844;2022-10-12T14:20:31;15.90;99.90
20891;DHT22;10605;52.968;8.844;2022-10-12T14:23:08;15.90;99.90
20891;DHT22;10605;52.968;8.844;2022-10-12T14:25:41;15.80;99.90
20891;DHT22;10605;52.968;8.844;2022-10-12T14:28:28;15.80;99.90
20891;DHT22;10605;52.968;8.844;2022-10-12T14:30:55;15.80;99.90
20891;DHT22;10605;52.968;8.844;2022-10-12T14:33:22;15.80;99.90
20891;DHT22;10605;52.968;8.844;2022-10-12T14:35:50;15.80;99.90
20891;DHT22;10605;52.968;8.844;2022-10-12T14:44:16;15.70;99.90
20891;DHT22;10605;52.968;8.844;2022-10-12T14:49:21;15.60;99.90
20891;DHT22;10605;52.968;8.844;2022-10-12T14:51:54;15.60;99.90
20891;DHT22;10605;52.968;8.844;2022-10-12T14:54:26;15.60;99.90
20891;DHT22;10605;52.968;8.844;2022-10-12T14:56:52;15.60;99.90
20891;DHT22;10605;52.968;8.844;2022-10-12T14:59:21;15.50;99.90
20891;DHT22;10605;52.968;8.844;2022-10-12T15:01:49;15.50;99.90
20891;DHT22;10605;52.968;8.844;2022-10-12T15:04:15;15.40;99.90
20891;DHT22;10605;52.968;8.844;2022-10-12T15:06:40;15.40;99.90
20891;DHT22;10605;52.968;8.844;2022-10-12T15:09:21;15.30;99.90
20891;DHT22;10605;52.968;8.844;2022-10-12T15:11:52;15.30;99.90
20891;DHT22;10605;52.968;8.844;2022-10-12T15:14:18;15.20;99.90
20891;DHT22;10605;52.968;8.844;2022-10-12T15:16:46;15.20;99.90
20891;DHT22;10605;52.968;8.844;2022-10-12T15:19:12;15.20;99.90
20891;DHT22;10605;52.968;8.844;2022-10-12T15:21:40;15.10;99.90
20891;DHT22;10605;52.968;8.844;2022-10-12T15:24:12;15.00;99.90
20891;DHT22;10605;52.968;8.844;2022-10-12T15:26:41;15.00;99.90
20891;DHT22;10605;52.968;8.844;2022-10-12T15:29:10;14.90;99.90
20891;DHT22;10605;52.968;8.844;2022-10-12T15:31:36;14.90;99.90
20891;DHT22;10605;52.968;8.844;2022-10-12T15:34:01;14.80;99.90
20891;DHT22;10605;52.968;8.844;2022-10-12T15:36:27;14.80;99.90
20891;DHT22;10605;52.968;8.844;2022-10-12T15:38:59;14.70;99.90
20891;DHT22;10605;52.968;8.844;2022-10-12T15:41:25;14.70;99.90
20891;DHT22;10605;52.968;8.844;2022-10-12T15:43:51;14.60;99.90
20891;DHT22;10605;52.968;8.844;2022-10-12T15:46:17;14.50;99.90
20891;DHT22;10605;52.968;8.844;2022-10-12T15:48:53;14.50;99.90
20891;DHT22;10605;52.968;8.844;2022-10-12T15:51:23;14.40;99.90
20891;DHT22;10605;52.968;8.844;2022-10-12T15:53:50;14.30;99.90
20891;DHT22;10605;52.968;8.844;2022-10-12T15:56:16;14.20;99.90
20891;DHT22;10605;52.968;8.844;2022-10-12T15:58:46;14.10;99.90
20891;DHT22;10605;52.968;8.844;2022-10-12T16:01:18;14.10;99.90
20891;DHT22;10605;52.968;8.844;2022-10-12T16:03:47;14.00;99.90
20891;DHT22;10605;52.968;8.844;2022-10-12T16:06:16;13.80;99.90
20891;DHT22;10605;52.968;8.844;2022-10-12T16:08:42;13.70;99.90
20891;DHT22;10605;52.968;8.844;2022-10-12T16:11:11;13.60;99.90
20891;DHT22;10605;52.968;8.844;2022-10-12T16:13:38;13.50;99.90
20891;DHT22;10605;52.968;8.844;2022-10-12T16:16:04;13.30;99.90
20891;DHT22;10605;52.968;8.844;2022-10-12T16:18:30;13.20;99.90
20891;DHT22;10605;52.968;8.844;2022-10-12T16:20:55;13.10;99.90
20891;DHT22;10605;52.968;8.844;2022-10-12T16:23:27;13.00;99.90
20891;DHT22;10605;52.968;8.844;2022-10-12T16:25:53;12.80;99.90
20891;DHT22;10605;52.968;8.844;2022-10-12T16:28:19;12.70;99.90
20891;DHT22;10605;52.968;8.844;2022-10-12T16:30:45;12.60;99.90
20891;DHT22;10605;52.968;8.844;2022-10-12T16:33:11;12.50;99.90
20891;DHT22;10605;52.968;8.844;2022-10-12T16:35:40;12.30;99.90
20891;DHT22;10605;52.968;8.844;2022-10-12T16:38:07;12.10;99.90
20891;DHT22;10605;52.968;8.844;2022-10-12T16:40:34;12.00;99.90
20891;DHT22;10605;52.968;8.844;2022-10-12T16:43:02;11.80;99.90
20891;DHT22;10605;52.968;8.844;2022-10-12T16:45:28;11.70;99.90
20891;DHT22;10605;52.968;8.844;2022-10-12T16:47:53;11.60;99.90
20891;DHT22;10605;52.968;8.844;2022-10-12T16:50:21;11.50;99.90
20891;DHT22;10605;52.968;8.844;2022-10-12T16:52:47;11.30;99.90
20891;DHT22;10605;52.968;8.844;2022-10-12T16:55:14;11.20;99.90
20891;DHT22;10605;52.968;8.844;2022-10-12T16:57:40;11.10;99.90
20891;DHT22;10605;52.968;8.844;2022-10-12T17:00:08;11.10;99.90
20891;DHT22;10605;52.968;8.844;2022-10-12T17:02:34;11.00;99.90
20891;DHT22;10605;52.968;8.844;2022-10-12T17:04:59;10.90;99.90
20891;DHT22;10605;52.968;8.844;2022-10-12T17:07:25;10.80;99.90
20891;DHT22;10605;52.968;8.844;2022-10-12T17:09:51;10.70;99.90
20891;DHT22;10605;52.968;8.844;2022-10-12T17:12:21;10.60;99.90
20891;DHT22;10605;52.968;8.844;2022-10-12T17:14:48;10.50;99.90
20891;DHT22;10605;52.968;8.844;2022-10-12T17:17:14;10.40;99.90
20891;DHT22;10605;52.968;8.844;2022-10-12T17:19:40;10.40;99.90
20891;DHT22;10605;52.968;8.844;2022-10-12T17:22:08;10.30;99.90
20891;DHT22;10605;52.968;8.844;2022-10-12T17:24:36;10.20;99.90
20891;DHT22;10605;52.968;8.844;2022-10-12T17:27:03;10.20;99.90
20891;DHT22;10605;52.968;8.844;2022-10-12T17:29:30;10.20;99.90
20891;DHT22;10605;52.968;8.844;2022-10-12T17:31:57;10.00;99.90
20891;DHT22;10605;52.968;8.844;2022-10-12T17:34:28;10.00;99.90
20891;DHT22;10605;52.968;8.844;2022-10-12T17:36:56;9.90;99.90
20891;DHT22;10605;52.968;8.844;2022-10-12T17:39:22;9.90;99.90
20891;DHT22;10605;52.968;8.844;2022-10-12T17:41:48;9.90;99.90
20891;DHT22;10605;52.968;8.844;2022-10-12T17:44:14;9.80;99.90
20891;DHT22;10605;52.968;8.844;2022-10-12T17:46:41;9.70;99.90
20891;DHT22;10605;52.968;8.844;2022-10-12T17:49:11;9.70;99.90
20891;DHT22;10605;52.968;8.844;2022-10-12T17:51:37;9.60;99.90
20891;DHT22;10605;52.968;8.844;2022-10-12T17:54:03;9.50;99.90
20891;DHT22;10605;52.968;8.844;2022-10-12T17:56:29;9.40;99.90
20891;DHT22;10605;52.968;8.844;2022-10-12T17:58:59;9.40;99.90
20891;DHT22;10605;52.968;8.844;2022-10-12T18:01:26;9.30;99.90
20891;DHT22;10605;52.968;8.844;2022-10-12T18:03:52;9.20;99.90